| time (UTC) | temp F | wind direction | speed MPH | gust MPH | rain 1hr in | rain 24hr in | rain mn in | humidity % | barometer mb |
| 20260901032034 | 70 | 298 | 4.0 | 7.0 | 0.00 | 0.00 | 0.00 | 31 | 1010.9 |
| 20260901031529 | 71 | 272 | 5.0 | 5.0 | 0.00 | 0.00 | 0.00 | 31 | 1010.9 |
| 20260901031025 | 72 | 308 | 3.0 | 6.0 | 0.00 | 0.00 | 0.00 | 29 | 1010.6 |
| 20260901030524 | 71 | 312 | 3.0 | 6.0 | 0.00 | 0.00 | 0.00 | 29 | 1010.8 |
| 20260901030019 | 71 | 262 | 7.0 | 8.0 | 0.00 | 0.00 | 0.00 | 30 | 1010.6 |
| 20260901025519 | 72 | 283 | 6.0 | 9.0 | 0.00 | 0.00 | 0.00 | 32 | 1010.6 |
| 20260901025013 | 73 | 251 | 2.0 | 4.0 | 0.00 | 0.00 | 0.00 | 30 | 1010.8 |
| 20260901024508 | 75 | 266 | 1.0 | 8.0 | 0.00 | 0.00 | 0.00 | 27 | 1010.6 |
| 20260901024007 | 75 | 129 | 3.0 | 9.0 | 0.00 | 0.00 | 0.00 | 25 | 1010.4 |
| 20260901023501 | 76 | 110 | 7.0 | 10.0 | 0.00 | 0.00 | 0.00 | 23 | 1010.6 |
| 20260901022955 | 76 | 12 | 2.0 | 11.0 | 0.00 | 0.00 | 0.00 | 24 | 1010.3 |
| 20260901022451 | 77 | 102 | 5.0 | 9.0 | 0.00 | 0.00 | 0.00 | 24 | 1010.3 |
| 20260901021946 | 77 | 102 | 8.0 | 12.0 | 0.00 | 0.00 | 0.00 | 24 | 1010.3 |
| 20260901021442 | 77 | 34 | 3.0 | 8.0 | 0.00 | 0.00 | 0.00 | 26 | 1010.2 |
| 20260901020937 | 77 | 57 | 3.0 | 11.0 | 0.00 | 0.00 | 0.00 | 28 | 1010.1 |
| 20260901020432 | 77 | 38 | 5.0 | 9.0 | 0.00 | 0.00 | 0.00 | 27 | 1010.0 |
| 20260901015931 | 78 | 47 | 8.0 | 12.0 | 0.00 | 0.00 | 0.00 | 27 | 1010.2 |
| 20260901015428 | 78 | 78 | 6.0 | 10.0 | 0.00 | 0.00 | 0.00 | 27 | 1010.0 |
| 20260901014927 | 78 | 47 | 3.0 | 8.0 | 0.00 | 0.00 | 0.00 | 28 | 1009.9 |
| 20260901014424 | 78 | 106 | 4.0 | 11.0 | 0.00 | 0.00 | 0.00 | 27 | 1009.7 |
| 20260901013919 | 78 | 74 | 6.0 | 14.0 | 0.00 | 0.00 | 0.00 | 28 | 1010.1 |
| 20260901013414 | 79 | 47 | 7.0 | 11.0 | 0.00 | 0.00 | 0.00 | 28 | 1010.0 |
| 20260901012910 | 79 | 87 | 11.0 | 11.0 | 0.00 | 0.00 | 0.00 | 29 | 1010.1 |
| 20260901012404 | 79 | 134 | 4.0 | 9.0 | 0.00 | 0.00 | 0.00 | 29 | 1010.0 |
| 20260901011900 | 80 | 60 | 10.0 | 11.0 | 0.00 | 0.00 | 0.00 | 28 | 1010.1 |
| 20260901011356 | 80 | 67 | 4.0 | 8.0 | 0.00 | 0.00 | 0.00 | 28 | 1010.2 |
| 20260901010854 | 80 | 8 | 0.0 | 11.0 | 0.00 | 0.00 | 0.00 | 29 | 1010.1 |
| 20260901010349 | 81 | 32 | 2.0 | 8.0 | 0.00 | 0.00 | 0.00 | 29 | 1009.8 |
| 20260901005848 | 81 | 102 | 4.0 | 17.0 | 0.00 | 0.00 | 0.00 | 28 | 1009.8 |
| 20260901005343 | 82 | 77 | 8.0 | 15.0 | 0.00 | 0.00 | 0.00 | 27 | 1010.0 |
| 20260901004838 | 82 | 52 | 4.0 | 7.0 | 0.00 | 0.00 | 0.00 | 26 | 1010.1 |
| 20260901004332 | 82 | 61 | 6.0 | 15.0 | 0.00 | 0.00 | 0.00 | 26 | 1010.2 |
| 20260901003827 | 82 | 125 | 9.0 | 15.0 | 0.00 | 0.00 | 0.00 | 26 | 1009.9 |
| 20260901003322 | 82 | 136 | 4.0 | 7.0 | 0.00 | 0.00 | 0.00 | 26 | 1010.1 |
| 20260901002821 | 83 | 72 | 4.0 | 8.0 | 0.00 | 0.00 | 0.00 | 25 | 1010.1 |
| 20260901002315 | 84 | 319 | 2.0 | 8.0 | 0.00 | 0.00 | 0.00 | 26 | 1010.1 |
| 20260901001815 | 84 | 202 | 4.0 | 12.0 | 0.00 | 0.00 | 0.00 | 26 | 1010.1 |
| 20260901001312 | 83 | 172 | 2.0 | 7.0 | 0.00 | 0.00 | 0.00 | 26 | 1010.0 |
| 20260901000806 | 83 | 153 | 2.0 | 8.0 | 0.00 | 0.00 | 0.00 | 27 | 1010.1 |
| 20260901000303 | 83 | 70 | 4.0 | 9.0 | 0.00 | 0.00 | 0.00 | 27 | 1010.3 |
| 20260831235759 | 82 | 197 | 1.0 | 16.0 | 0.00 | 0.00 | 0.00 | 27 | 1010.3 |
| 20260831235255 | 83 | 239 | 5.0 | 14.0 | 0.00 | 0.00 | 0.00 | 27 | 1010.0 |
| 20260831234750 | 84 | 225 | 5.0 | 13.0 | 0.00 | 0.00 | 0.00 | 25 | 1010.2 |
| 20260831234249 | 85 | 294 | 2.0 | 5.0 | 0.00 | 0.00 | 0.00 | 25 | 1010.1 |
| 20260831233745 | 84 | 189 | 2.0 | 7.0 | 0.00 | 0.00 | 0.00 | 25 | 1010.2 |
| 20260831233240 | 84 | 143 | 4.0 | 11.0 | 0.00 | 0.00 | 0.00 | 26 | 1010.3 |
| 20260831232735 | 84 | 166 | 7.0 | 18.0 | 0.00 | 0.00 | 0.00 | 26 | 1010.4 |
| 20260831232231 | 84 | 293 | 0.0 | 12.0 | 0.00 | 0.00 | 0.00 | 27 | 1010.5 |
| 20260831231727 | 85 | 58 | 2.0 | 13.0 | 0.00 | 0.00 | 0.00 | 27 | 1010.4 |
| 20260831231224 | 85 | 166 | 3.0 | 14.0 | 0.00 | 0.00 | 0.00 | 27 | 1010.8 |
| 20260831230718 | 84 | 213 | 9.0 | 14.0 | 0.00 | 0.00 | 0.00 | 27 | 1010.4 |
| 20260831230213 | 84 | 233 | 6.0 | 15.0 | 0.00 | 0.00 | 0.00 | 26 | 1010.3 |
| 20260831225712 | 86 | 277 | 13.0 | 17.0 | 0.00 | 0.00 | 0.00 | 25 | 1010.4 |
| 20260831225208 | 85 | 247 | 15.0 | 16.0 | 0.00 | 0.00 | 0.00 | 25 | 1010.6 |
| 20260831224703 | 86 | 248 | 3.0 | 14.0 | 0.00 | 0.00 | 0.00 | 26 | 1010.6 |
| 20260831224158 | 85 | 251 | 7.0 | 13.0 | 0.00 | 0.00 | 0.00 | 26 | 1010.8 |
| 20260831223653 | 85 | 206 | 5.0 | 17.0 | 0.00 | 0.00 | 0.00 | 26 | 1010.6 |
| 20260831223150 | 85 | 239 | 5.0 | 15.0 | 0.00 | 0.00 | 0.00 | 25 | 1010.8 |
| 20260831222645 | 87 | 218 | 12.0 | 18.0 | 0.00 | 0.00 | 0.00 | 24 | 1010.9 |
| 20260831222141 | 85 | 102 | 0.0 | 3.0 | 0.00 | 0.00 | 0.00 | 25 | 1010.5 |
| 20260831221636 | 85 | 100 | 6.0 | 10.0 | 0.00 | 0.00 | 0.00 | 25 | 1010.8 |
| 20260831221131 | 86 | 169 | 3.0 | 10.0 | 0.00 | 0.00 | 0.00 | 25 | 1011.0 |
| 20260831220626 | 85 | 193 | 5.0 | 13.0 | 0.00 | 0.00 | 0.00 | 25 | 1011.1 |
| 20260831220121 | 85 | 185 | 3.0 | 14.0 | 0.00 | 0.00 | 0.00 | 25 | 1011.1 |
| 20260831215617 | 86 | 248 | 5.0 | 8.0 | 0.00 | 0.00 | 0.00 | 25 | 1011.1 |
| 20260831215112 | 85 | 195 | 7.0 | 17.0 | 0.00 | 0.00 | 0.00 | 25 | 1011.2 |
| 20260831214610 | 85 | 194 | 5.0 | 12.0 | 0.00 | 0.00 | 0.00 | 25 | 1011.2 |
| 20260831214106 | 86 | 127 | 3.0 | 8.0 | 0.00 | 0.00 | 0.00 | 25 | 1011.1 |
| 20260831213603 | 86 | 121 | 4.0 | 10.0 | 0.00 | 0.00 | 0.00 | 24 | 1011.2 |
| 20260831213057 | 85 | 185 | 7.0 | 13.0 | 0.00 | 0.00 | 0.00 | 24 | 1011.3 |
| 20260831212553 | 85 | 239 | 7.0 | 11.0 | 0.00 | 0.00 | 0.00 | 24 | 1011.1 |
| 20260831212049 | 84 | 188 | 5.0 | 13.0 | 0.00 | 0.00 | 0.00 | 24 | 1011.2 |
| 20260831211543 | 85 | 204 | 5.0 | 12.0 | 0.00 | 0.00 | 0.00 | 24 | 1011.3 |
| 20260831211042 | 85 | 92 | 3.0 | 15.0 | 0.00 | 0.00 | 0.00 | 24 | 1011.2 |
| 20260831210537 | 86 | 117 | 1.0 | 9.0 | 0.00 | 0.00 | 0.00 | 24 | 1011.4 |
| 20260831210034 | 85 | 69 | 4.0 | 11.0 | 0.00 | 0.00 | 0.00 | 24 | 1011.3 |
| 20260831205533 | 84 | 197 | 8.0 | 15.0 | 0.00 | 0.00 | 0.00 | 25 | 1011.4 |
| 20260831205029 | 84 | 178 | 6.0 | 11.0 | 0.00 | 0.00 | 0.00 | 24 | 1011.2 |
| 20260831204524 | 84 | 181 | 7.0 | 16.0 | 0.00 | 0.00 | 0.00 | 24 | 1011.4 |
| 20260831204022 | 85 | 208 | 9.0 | 15.0 | 0.00 | 0.00 | 0.00 | 22 | 1011.6 |
| 20260831203517 | 85 | 181 | 6.0 | 8.0 | 0.00 | 0.00 | 0.00 | 23 | 1011.2 |
| 20260831203016 | 84 | 155 | 5.0 | 10.0 | 0.00 | 0.00 | 0.00 | 24 | 1011.2 |
| 20260831202510 | 83 | 195 | 4.0 | 11.0 | 0.00 | 0.00 | 0.00 | 25 | 1011.4 |
| 20260831202009 | 83 | 221 | 13.0 | 13.0 | 0.00 | 0.00 | 0.00 | 23 | 1011.5 |
| 20260831201508 | 85 | 223 | 6.0 | 13.0 | 0.00 | 0.00 | 0.00 | 22 | 1011.5 |
| 20260831201004 | 85 | 130 | 5.0 | 9.0 | 0.00 | 0.00 | 0.00 | 22 | 1011.4 |
| 20260831200459 | 85 | 92 | 6.0 | 13.0 | 0.00 | 0.00 | 0.00 | 22 | 1011.4 |
| 20260831195954 | 84 | 152 | 4.0 | 11.0 | 0.00 | 0.00 | 0.00 | 21 | 1011.5 |
| 20260831195450 | 85 | 101 | 7.0 | 10.0 | 0.00 | 0.00 | 0.00 | 23 | 1011.5 |
| 20260831194950 | 85 | 131 | 6.0 | 10.0 | 0.00 | 0.00 | 0.00 | 22 | 1011.7 |
| 20260831194445 | 85 | 149 | 3.0 | 11.0 | 0.00 | 0.00 | 0.00 | 21 | 1011.5 |
| 20260831193945 | 84 | 78 | 4.0 | 7.0 | 0.00 | 0.00 | 0.00 | 20 | 1011.6 |
| 20260831193440 | 83 | 192 | 5.0 | 11.0 | 0.00 | 0.00 | 0.00 | 22 | 1011.6 |
| 20260831192935 | 83 | 214 | 3.0 | 10.0 | 0.00 | 0.00 | 0.00 | 22 | 1011.8 |
| 20260831192430 | 84 | 182 | 10.0 | 12.0 | 0.00 | 0.00 | 0.00 | 23 | 1011.7 |
| 20260831191925 | 82 | 144 | 5.0 | 14.0 | 0.00 | 0.00 | 0.00 | 26 | 1011.7 |
| 20260831191421 | 82 | 104 | 5.0 | 10.0 | 0.00 | 0.00 | 0.00 | 26 | 1011.7 |
| 20260831190917 | 82 | 211 | 4.0 | 6.0 | 0.00 | 0.00 | 0.00 | 27 | 1011.6 |
| 20260831190412 | 81 | 201 | 8.0 | 15.0 | 0.00 | 0.00 | 0.00 | 27 | 1012.0 |
| 20260831185911 | 81 | 267 | 2.0 | 11.0 | 0.00 | 0.00 | 0.00 | 29 | 1011.9 |
| 20260831185407 | 81 | 208 | 5.0 | 11.0 | 0.00 | 0.00 | 0.00 | 29 | 1011.9 |
| 20260831184906 | 80 | 289 | 3.0 | 11.0 | 0.00 | 0.00 | 0.00 | 30 | 1011.9 |
| 20260831184401 | 81 | 154 | 7.0 | 13.0 | 0.00 | 0.00 | 0.00 | 30 | 1011.7 |
| 20260831183856 | 82 | 171 | 8.0 | 9.0 | 0.00 | 0.00 | 0.00 | 31 | 1011.9 |
| 20260831183356 | 82 | 179 | 4.0 | 9.0 | 0.00 | 0.00 | 0.00 | 32 | 1011.9 |
| 20260831182855 | 80 | 189 | 5.0 | 7.0 | 0.00 | 0.00 | 0.00 | 33 | 1011.8 |
| 20260831182351 | 81 | 222 | 5.0 | 13.0 | 0.00 | 0.00 | 0.00 | 33 | 1011.9 |
| 20260831181846 | 82 | 332 | 1.0 | 7.0 | 0.00 | 0.00 | 0.00 | 32 | 1011.9 |
| 20260831181341 | 80 | 306 | 2.0 | 6.0 | 0.00 | 0.00 | 0.00 | 33 | 1012.0 |
| 20260831180836 | 80 | 16 | 2.0 | 8.0 | 0.00 | 0.00 | 0.00 | 33 | 1012.0 |
| 20260831180331 | 80 | 207 | 4.0 | 8.0 | 0.00 | 0.00 | 0.00 | 33 | 1012.0 |
| 20260831175830 | 81 | 131 | 6.0 | 7.0 | 0.00 | 0.00 | 0.00 | 32 | 1012.0 |
| 20260831175326 | 79 | 190 | 3.0 | 11.0 | 0.00 | 0.00 | 0.00 | 34 | 1012.1 |
| 20260831174822 | 79 | 181 | 3.0 | 9.0 | 0.00 | 0.00 | 0.00 | 35 | 1012.1 |
| 20260831174317 | 79 | 217 | 4.0 | 6.0 | 0.00 | 0.00 | 0.00 | 35 | 1012.0 |
| 20260831173816 | 79 | 204 | 5.0 | 7.0 | 0.00 | 0.00 | 0.00 | 35 | 1011.9 |
| 20260831173311 | 79 | 243 | 3.0 | 6.0 | 0.00 | 0.00 | 0.00 | 35 | 1011.9 |
| 20260831172806 | 79 | 192 | 5.0 | 5.0 | 0.00 | 0.00 | 0.00 | 35 | 1012.0 |
| 20260831172301 | 79 | 109 | 5.0 | 6.0 | 0.00 | 0.00 | 0.00 | 37 | 1011.9 |
| 20260831171755 | 79 | 128 | 2.0 | 7.0 | 0.00 | 0.00 | 0.00 | 37 | 1011.8 |
| 20260831171253 | 78 | 140 | 5.0 | 7.0 | 0.00 | 0.00 | 0.00 | 37 | 1011.9 |
| 20260831170749 | 77 | 175 | 3.0 | 7.0 | 0.00 | 0.00 | 0.00 | 38 | 1011.8 |
| 20260831170245 | 78 | 109 | 2.0 | 5.0 | 0.00 | 0.00 | 0.00 | 36 | 1012.0 |
| 20260831165741 | 76 | 176 | 2.0 | 4.0 | 0.00 | 0.00 | 0.00 | 37 | 1012.1 |
| 20260831165238 | 76 | 121 | 2.0 | 6.0 | 0.00 | 0.00 | 0.00 | 37 | 1012.1 |
| 20260831164733 | 75 | 294 | 0.0 | 6.0 | 0.00 | 0.00 | 0.00 | 37 | 1012.1 |
| 20260831164229 | 75 | 92 | 1.0 | 4.0 | 0.00 | 0.00 | 0.00 | 39 | 1011.9 |
| 20260831163724 | 75 | 73 | 4.0 | 5.0 | 0.00 | 0.00 | 0.00 | 39 | 1012.0 |
| 20260831163220 | 74 | 145 | 1.0 | 4.0 | 0.00 | 0.00 | 0.00 | 39 | 1012.1 |
| 20260831162718 | 73 | 87 | 4.0 | 5.0 | 0.00 | 0.00 | 0.00 | 41 | 1012.0 |
| 20260831162218 | 72 | 81 | 3.0 | 5.0 | 0.00 | 0.00 | 0.00 | 40 | 1012.0 |
| 20260831161713 | 70 | 78 | 2.0 | 6.0 | 0.00 | 0.00 | 0.00 | 42 | 1011.9 |
| 20260831161209 | 70 | 77 | 4.0 | 5.0 | 0.00 | 0.00 | 0.00 | 42 | 1012.0 |
| 20260831160708 | 70 | 83 | 2.0 | 3.0 | 0.00 | 0.00 | 0.00 | 42 | 1012.2 |
| 20260831160158 | 70 | 102 | 1.0 | 5.0 | 0.00 | 0.00 | 0.00 | 42 | 1012.3 |
| 20260831155657 | 70 | 77 | 3.0 | 4.0 | 0.00 | 0.00 | 0.00 | 42 | 1012.1 |
| 20260831155153 | 69 | 73 | 0.0 | 2.0 | 0.00 | 0.00 | 0.00 | 42 | 1012.2 |
| 20260831154649 | 66 | 77 | 0.0 | 2.0 | 0.00 | 0.00 | 0.00 | 46 | 1012.3 |
| 20260831154144 | 65 | 166 | 0.0 | 2.0 | 0.00 | 0.00 | 0.00 | 46 | 1012.1 |
| 20260831153643 | 65 | 89 | 0.0 | 2.0 | 0.00 | 0.00 | 0.00 | 45 | 1012.1 |
| 20260831153140 | 63 | 185 | 1.0 | 2.0 | 0.00 | 0.00 | 0.00 | 47 | 1012.2 |
| 20260831152635 | 63 | 230 | 0.0 | 2.0 | 0.00 | 0.00 | 0.00 | 48 | 1012.2 |
| 20260831152131 | 64 | 136 | 1.0 | 4.0 | 0.00 | 0.00 | 0.00 | 48 | 1012.4 |
| 20260831151630 | 62 | 158 | 1.0 | 2.0 | 0.00 | 0.00 | 0.00 | 49 | 1012.5 |
| 20260831151125 | 61 | 117 | 0.0 | 2.0 | 0.00 | 0.00 | 0.00 | 49 | 1012.2 |
| 20260831150620 | 60 | 135 | 0.0 | 2.0 | 0.00 | 0.00 | 0.00 | 50 | 1012.5 |
| 20260831150116 | 60 | 156 | 2.0 | 3.0 | 0.00 | 0.00 | 0.00 | 51 | 1012.2 |
| 20260831145609 | 62 | 114 | 2.0 | 3.0 | 0.00 | 0.00 | 0.00 | 48 | 1012.3 |
| 20260831145106 | 59 | 95 | 1.0 | 2.0 | 0.00 | 0.00 | 0.00 | 52 | 1012.1 |
| 20260831144601 | 57 | 185 | 0.0 | 3.0 | 0.00 | 0.00 | 0.00 | 55 | 1012.4 |
| 20260831144056 | 57 | 312 | 0.0 | 2.0 | 0.00 | 0.00 | 0.00 | 54 | 1012.4 |
| 20260831143545 | 59 | 114 | 1.0 | 2.0 | 0.00 | 0.00 | 0.00 | 51 | 1012.1 |
| 20260831143041 | 57 | 38 | 1.0 | 3.0 | 0.00 | 0.00 | 0.00 | 56 | 1012.3 |
| 20260831142537 | 55 | 286 | 1.0 | 3.0 | 0.00 | 0.00 | 0.00 | 58 | 1012.0 |
| 20260831142032 | 53 | 50 | 1.0 | 3.0 | 0.00 | 0.00 | 0.00 | 60 | 1012.0 |
| 20260831141531 | 53 | 238 | 1.0 | 3.0 | 0.00 | 0.00 | 0.00 | 60 | 1012.0 |
| 20260831141027 | 53 | 275 | 2.0 | 3.0 | 0.00 | 0.00 | 0.00 | 61 | 1012.1 |
| 20260831140526 | 53 | 272 | 2.0 | 4.0 | 0.00 | 0.00 | 0.00 | 59 | 1012.0 |
| 20260831140026 | 54 | 167 | 1.0 | 3.0 | 0.00 | 0.00 | 0.00 | 59 | 1012.0 |
| 20260831135524 | 54 | 235 | 0.0 | 2.0 | 0.00 | 0.00 | 0.00 | 59 | 1011.9 |
| 20260831135019 | 53 | 133 | 1.0 | 2.0 | 0.00 | 0.00 | 0.00 | 59 | 1012.0 |
| 20260831134515 | 53 | 242 | 0.0 | 2.0 | 0.00 | 0.00 | 0.00 | 59 | 1012.0 |
| 20260831134015 | 53 | 224 | 0.0 | 2.0 | 0.00 | 0.00 | 0.00 | 60 | 1012.0 |
| 20260831133510 | 52 | 264 | 1.0 | 3.0 | 0.00 | 0.00 | 0.00 | 61 | 1011.9 |
| 20260831133005 | 53 | 99 | 1.0 | 3.0 | 0.00 | 0.00 | 0.00 | 59 | 1011.9 |
| 20260831132501 | 53 | 69 | 3.0 | 4.0 | 0.00 | 0.00 | 0.00 | 59 | 1011.9 |
| 20260831131959 | 53 | 327 | 1.0 | 4.0 | 0.00 | 0.00 | 0.00 | 59 | 1011.9 |
| 20260831131454 | 53 | 55 | 0.0 | 3.0 | 0.00 | 0.00 | 0.00 | 58 | 1011.8 |
| 20260831130950 | 53 | 50 | 2.0 | 4.0 | 0.00 | 0.00 | 0.00 | 58 | 1012.0 |
| 20260831130445 | 54 | 287 | 2.0 | 4.0 | 0.00 | 0.00 | 0.00 | 57 | 1011.8 |
| 20260831125944 | 53 | 84 | 1.0 | 4.0 | 0.00 | 0.00 | 0.00 | 57 | 1011.8 |
| 20260831125439 | 53 | 245 | 1.0 | 2.0 | 0.00 | 0.00 | 0.00 | 57 | 1012.1 |
| 20260831124935 | 53 | 272 | 2.0 | 3.0 | 0.00 | 0.00 | 0.00 | 57 | 1011.8 |
| 20260831124431 | 53 | 112 | 1.0 | 2.0 | 0.00 | 0.00 | 0.00 | 56 | 1012.1 |
| 20260831123926 | 54 | 95 | 0.0 | 2.0 | 0.00 | 0.00 | 0.00 | 56 | 1012.0 |
| 20260831123425 | 54 | 242 | 0.0 | 3.0 | 0.00 | 0.00 | 0.00 | 55 | 1012.1 |
| 20260831122919 | 53 | 123 | 2.0 | 3.0 | 0.00 | 0.00 | 0.00 | 56 | 1011.9 |
| 20260831122409 | 53 | 183 | 1.0 | 2.0 | 0.00 | 0.00 | 0.00 | 55 | 1011.9 |
| 20260831121909 | 54 | 257 | 1.0 | 3.0 | 0.00 | 0.00 | 0.00 | 55 | 1011.7 |
| 20260831121400 | 54 | 15 | 0.0 | 3.0 | 0.00 | 0.00 | 0.00 | 55 | 1011.9 |
| 20260831120855 | 54 | 312 | 0.0 | 2.0 | 0.00 | 0.00 | 0.00 | 54 | 1011.8 |
| 20260831120350 | 54 | 254 | 2.0 | 3.0 | 0.00 | 0.00 | 0.00 | 53 | 1011.9 |
| 20260831115845 | 54 | 306 | 2.0 | 3.0 | 0.00 | 0.00 | 0.00 | 55 | 1011.9 |
| 20260831115342 | 54 | 124 | 2.0 | 3.0 | 0.00 | 0.00 | 0.00 | 53 | 1011.9 |
| 20260831114840 | 55 | 101 | 2.0 | 3.0 | 0.00 | 0.00 | 0.00 | 52 | 1012.0 |
| 20260831114334 | 56 | 304 | 0.0 | 2.0 | 0.00 | 0.00 | 0.00 | 51 | 1012.1 |
| 20260831113830 | 55 | 296 | 1.0 | 2.0 | 0.00 | 0.00 | 0.00 | 53 | 1012.1 |
| 20260831113330 | 55 | 44 | 2.0 | 2.0 | 0.00 | 0.00 | 0.00 | 53 | 1012.4 |
| 20260831112824 | 55 | 44 | 2.0 | 3.0 | 0.00 | 0.00 | 0.00 | 52 | 1012.0 |
| 20260831112319 | 55 | 320 | 1.0 | 2.0 | 0.00 | 0.00 | 0.00 | 52 | 1012.1 |
| 20260831111814 | 55 | 158 | 2.0 | 3.0 | 0.00 | 0.00 | 0.00 | 51 | 1012.2 |
| 20260831111311 | 56 | 210 | 0.0 | 3.0 | 0.00 | 0.00 | 0.00 | 50 | 1012.2 |
| 20260831110806 | 55 | 254 | 2.0 | 2.0 | 0.00 | 0.00 | 0.00 | 51 | 1012.0 |
| 20260831110301 | 55 | 269 | 0.0 | 2.0 | 0.00 | 0.00 | 0.00 | 50 | 1012.0 |
| 20260831105759 | 55 | 282 | 0.0 | 1.0 | 0.00 | 0.00 | 0.00 | 50 | 1012.1 |
| 20260831105255 | 55 | 39 | 3.0 | 3.0 | 0.00 | 0.00 | 0.00 | 50 | 1012.3 |
| 20260831104750 | 55 | 291 | 1.0 | 3.0 | 0.00 | 0.00 | 0.00 | 50 | 1012.3 |
| 20260831104247 | 56 | 72 | 1.0 | 2.0 | 0.00 | 0.00 | 0.00 | 50 | 1012.2 |
| 20260831103746 | 57 | 195 | 0.0 | 3.0 | 0.00 | 0.00 | 0.00 | 49 | 1012.3 |
| 20260831103241 | 57 | 324 | 0.0 | 2.0 | 0.00 | 0.00 | 0.00 | 48 | 1012.2 |
| 20260831102736 | 57 | 214 | 1.0 | 2.0 | 0.00 | 0.00 | 0.00 | 47 | 1012.3 |
| 20260831102231 | 57 | 179 | 2.0 | 3.0 | 0.00 | 0.00 | 0.00 | 47 | 1012.2 |
| 20260831101726 | 56 | 339 | 2.0 | 3.0 | 0.00 | 0.00 | 0.00 | 49 | 1012.2 |
| 20260831101222 | 55 | 243 | 2.0 | 3.0 | 0.00 | 0.00 | 0.00 | 50 | 1012.2 |
| 20260831100718 | 56 | 217 | 1.0 | 2.0 | 0.00 | 0.00 | 0.00 | 49 | 1012.1 |
| 20260831100214 | 57 | 101 | 1.0 | 2.0 | 0.00 | 0.00 | 0.00 | 47 | 1012.4 |
| 20260831095712 | 57 | 284 | 0.0 | 2.0 | 0.00 | 0.00 | 0.00 | 48 | 1012.2 |
| 20260831095207 | 56 | 284 | 1.0 | 2.0 | 0.00 | 0.00 | 0.00 | 48 | 1012.4 |
| 20260831094702 | 56 | 104 | 0.0 | 2.0 | 0.00 | 0.00 | 0.00 | 49 | 1012.4 |
| 20260831094158 | 56 | 243 | 1.0 | 2.0 | 0.00 | 0.00 | 0.00 | 48 | 1012.2 |
| 20260831093654 | 57 | 77 | 1.0 | 3.0 | 0.00 | 0.00 | 0.00 | 47 | 1012.5 |
| 20260831093149 | 58 | 325 | 1.0 | 2.0 | 0.00 | 0.00 | 0.00 | 45 | 1012.3 |
| 20260831092645 | 58 | 295 | 1.0 | 2.0 | 0.00 | 0.00 | 0.00 | 46 | 1012.4 |
| 20260831092141 | 58 | 310 | 0.0 | 2.0 | 0.00 | 0.00 | 0.00 | 46 | 1012.4 |
| 20260831091640 | 57 | 311 | 2.0 | 3.0 | 0.00 | 0.00 | 0.00 | 47 | 1012.3 |
| 20260831091136 | 57 | 301 | 2.0 | 3.0 | 0.00 | 0.00 | 0.00 | 48 | 1012.2 |
| 20260831090631 | 57 | 100 | 1.0 | 2.0 | 0.00 | 0.00 | 0.00 | 47 | 1012.4 |
| 20260831090127 | 58 | 62 | 3.0 | 4.0 | 0.00 | 0.00 | 0.00 | 46 | 1012.5 |
| 20260831085622 | 59 | 299 | 2.0 | 2.0 | 0.00 | 0.00 | 0.00 | 45 | 1012.5 |
| 20260831085118 | 58 | 267 | 1.0 | 2.0 | 0.00 | 0.00 | 0.00 | 46 | 1012.3 |
| 20260831084614 | 58 | 323 | 1.0 | 2.0 | 0.00 | 0.00 | 0.00 | 45 | 1012.4 |
| 20260831084109 | 58 | 247 | 0.0 | 2.0 | 0.00 | 0.00 | 0.00 | 46 | 1012.5 |
| 20260831083605 | 58 | 76 | 2.0 | 3.0 | 0.00 | 0.00 | 0.00 | 45 | 1012.4 |
| 20260831083100 | 59 | 69 | 1.0 | 2.0 | 0.00 | 0.00 | 0.00 | 45 | 1012.5 |
| 20260831082553 | 59 | 166 | 0.0 | 2.0 | 0.00 | 0.00 | 0.00 | 44 | 1012.4 |
| 20260831082049 | 59 | 331 | 1.0 | 3.0 | 0.00 | 0.00 | 0.00 | 44 | 1012.4 |
| 20260831081544 | 59 | 212 | 0.0 | 2.0 | 0.00 | 0.00 | 0.00 | 45 | 1012.8 |
| 20260831081040 | 59 | 304 | 0.0 | 2.0 | 0.00 | 0.00 | 0.00 | 44 | 1012.5 |
| 20260831080540 | 59 | 25 | 0.0 | 2.0 | 0.00 | 0.00 | 0.00 | 44 | 1012.5 |
| 20260831080030 | 59 | 87 | 1.0 | 5.0 | 0.00 | 0.00 | 0.00 | 45 | 1012.4 |
| 20260831075525 | 60 | 15 | 1.0 | 3.0 | 0.00 | 0.00 | 0.00 | 42 | 1012.6 |
| 20260831075020 | 60 | 273 | 2.0 | 3.0 | 0.00 | 0.00 | 0.00 | 44 | 1012.4 |
| 20260831074515 | 60 | 70 | 1.0 | 2.0 | 0.00 | 0.00 | 0.00 | 43 | 1012.6 |
| 20260831074014 | 61 | 89 | 0.0 | 1.0 | 0.00 | 0.00 | 0.00 | 42 | 1012.4 |
| 20260831073509 | 60 | 338 | 1.0 | 2.0 | 0.00 | 0.00 | 0.00 | 43 | 1012.6 |
| 20260831073009 | 61 | 197 | 2.0 | 3.0 | 0.00 | 0.00 | 0.00 | 43 | 1012.5 |
| 20260831072504 | 62 | 247 | 0.0 | 2.0 | 0.00 | 0.00 | 0.00 | 42 | 1012.5 |
| 20260831072000 | 62 | 89 | 0.0 | 2.0 | 0.00 | 0.00 | 0.00 | 42 | 1012.6 |
| 20260831071459 | 61 | 318 | 0.0 | 1.0 | 0.00 | 0.00 | 0.00 | 42 | 1012.5 |
| 20260831070954 | 61 | 245 | 2.0 | 2.0 | 0.00 | 0.00 | 0.00 | 42 | 1012.4 |
| 20260831070453 | 61 | 62 | 0.0 | 1.0 | 0.00 | 0.00 | 0.00 | 42 | 1012.5 |
| 20260831065952 | 62 | 280 | 2.0 | 2.0 | 0.00 | 0.00 | 0.00 | 42 | 1012.5 |
| 20260831065450 | 62 | 129 | 0.0 | 2.0 | 0.00 | 0.00 | 0.00 | 41 | 1012.4 |
| 20260831064945 | 62 | 291 | 1.0 | 2.0 | 0.00 | 0.00 | 0.00 | 42 | 1012.5 |
| 20260831064435 | 62 | 333 | 0.0 | 0.0 | 0.00 | 0.00 | 0.00 | 41 | 1012.5 |
| 20260831063931 | 62 | 210 | 1.0 | 2.0 | 0.00 | 0.00 | 0.00 | 41 | 1012.5 |
| 20260831063425 | 63 | 261 | 2.0 | 4.0 | 0.00 | 0.00 | 0.00 | 41 | 1012.6 |
| 20260831062919 | 63 | 0 | 0.0 | 1.0 | 0.00 | 0.00 | 0.00 | 40 | 1012.6 |
| 20260831062416 | 63 | 304 | 0.0 | 2.0 | 0.00 | 0.00 | 0.00 | 40 | 1012.5 |
| 20260831061914 | 63 | 293 | 0.0 | 1.0 | 0.00 | 0.00 | 0.00 | 40 | 1012.5 |
| 20260831061413 | 63 | 326 | 1.0 | 1.0 | 0.00 | 0.00 | 0.00 | 40 | 1012.5 |
| 20260831060910 | 64 | 55 | 2.0 | 3.0 | 0.00 | 0.00 | 0.00 | 40 | 1012.4 |
| 20260831060409 | 64 | 274 | 1.0 | 3.0 | 0.00 | 0.00 | 0.00 | 39 | 1012.5 |
| 20260831055909 | 64 | 282 | 3.0 | 4.0 | 0.00 | 0.00 | 0.00 | 40 | 1012.5 |
| 20260831055404 | 63 | 256 | 0.0 | 2.0 | 0.00 | 0.00 | 0.00 | 41 | 1012.4 |
| 20260831054859 | 64 | 64 | 1.0 | 4.0 | 0.00 | 0.00 | 0.00 | 40 | 1012.6 |
| 20260831054354 | 66 | 338 | 1.0 | 3.0 | 0.00 | 0.00 | 0.00 | 37 | 1012.2 |
| 20260831053848 | 65 | 285 | 2.0 | 3.0 | 0.00 | 0.00 | 0.00 | 38 | 1012.6 |
| 20260831053346 | 65 | 216 | 0.0 | 2.0 | 0.00 | 0.00 | 0.00 | 38 | 1012.5 |
| 20260831052840 | 66 | 88 | 0.0 | 2.0 | 0.00 | 0.00 | 0.00 | 38 | 1012.5 |
| 20260831052335 | 67 | 322 | 0.0 | 3.0 | 0.00 | 0.00 | 0.00 | 36 | 1012.5 |
| 20260831051833 | 67 | 318 | 1.0 | 2.0 | 0.00 | 0.00 | 0.00 | 36 | 1012.3 |
| 20260831051332 | 67 | 318 | 2.0 | 3.0 | 0.00 | 0.00 | 0.00 | 37 | 1012.4 |
| 20260831050826 | 66 | 259 | 1.0 | 2.0 | 0.00 | 0.00 | 0.00 | 38 | 1012.5 |
| 20260831050320 | 66 | 65 | 3.0 | 4.0 | 0.00 | 0.00 | 0.00 | 38 | 1012.3 |
| 20260831045814 | 67 | 264 | 2.0 | 3.0 | 0.00 | 0.00 | 0.00 | 36 | 1012.4 |
| 20260831045309 | 67 | 273 | 2.0 | 3.0 | 0.00 | 0.00 | 0.00 | 37 | 1012.3 |
| 20260831044804 | 68 | 341 | 1.0 | 3.0 | 0.00 | 0.00 | 0.00 | 36 | 1012.3 |
| 20260831044258 | 68 | 262 | 2.0 | 3.0 | 0.00 | 0.00 | 0.00 | 36 | 1012.3 |
| 20260831043754 | 68 | 180 | 0.0 | 1.0 | 0.00 | 0.00 | 0.00 | 36 | 1012.4 |
| 20260831043248 | 68 | 272 | 2.0 | 2.0 | 0.00 | 0.00 | 0.00 | 36 | 1012.4 |
| 20260831042748 | 69 | 36 | 0.0 | 2.0 | 0.00 | 0.00 | 0.00 | 34 | 1012.4 |
| 20260831042243 | 69 | 223 | 2.0 | 3.0 | 0.00 | 0.00 | 0.00 | 34 | 1012.3 |
| 20260831041739 | 70 | 26 | 1.0 | 3.0 | 0.00 | 0.00 | 0.00 | 33 | 1012.4 |
| 20260831041238 | 70 | 303 | 1.0 | 3.0 | 0.00 | 0.00 | 0.00 | 34 | 1012.2 |
| 20260831040733 | 70 | 285 | 1.0 | 2.0 | 0.00 | 0.00 | 0.00 | 35 | 1012.1 |
| 20260831040232 | 71 | 62 | 2.0 | 3.0 | 0.00 | 0.00 | 0.00 | 33 | 1012.2 |
| 20260831035725 | 71 | 301 | 3.0 | 3.0 | 0.00 | 0.00 | 0.00 | 33 | 1012.2 |
| 20260831035224 | 72 | 263 | 2.0 | 3.0 | 0.00 | 0.00 | 0.00 | 33 | 1012.1 |
| 20260831034723 | 72 | 356 | 0.0 | 2.0 | 0.00 | 0.00 | 0.00 | 31 | 1012.0 |
| 20260831034220 | 73 | 214 | 2.0 | 3.0 | 0.00 | 0.00 | 0.00 | 31 | 1011.8 |
| 20260831033715 | 74 | 331 | 1.0 | 2.0 | 0.00 | 0.00 | 0.00 | 30 | 1011.8 |
| 20260831033214 | 74 | 272 | 0.0 | 3.0 | 0.00 | 0.00 | 0.00 | 30 | 1011.9 |
| 20260831032709 | 74 | 242 | 0.0 | 2.0 | 0.00 | 0.00 | 0.00 | 30 | 1011.9 |
| 20260831032204 | 75 | 274 | 3.0 | 4.0 | 0.00 | 0.00 | 0.00 | 29 | 1011.7 |